Laird Hill, Texas
Current Conditions -  °F | °C
As of 2:53 AM on Saturday 29 Nov 2014 (Local Time) from KGGG Reporting Station
Scattered Clouds Scattered Clouds  
Wind Chill: 58°   Ceiling: Unl
Heat Index: 58°   Visibility: 10mi
Dew Point: 54°   Wind: 15mph
Humidity: 87%   Direction: 200°SSW
Pressure: 30.02"   Gusts: NA
Location:  32.35°N, 94.91°W
Report Text: KGGG 290853Z AUTO 20013KT 10SM SCT010 14/12 A3002 RMK AO2 SLP164 T01440122 58008
Loading
Personal Weather Stations






























Interactive Weather Map New forecast layout! Learn more

10-Day Weather Forecast

Advertisements
Track Severe Weather on mobile